createdAt,value
2019-03-02T00:00:51.267Z,9.18
2019-03-02T00:01:53.131Z,9.13
2019-03-02T00:02:51.217Z,9.1
2019-03-02T00:03:50.972Z,9.08
2019-03-02T00:04:53.872Z,9.13
2019-03-02T00:05:50.951Z,9.08
2019-03-02T00:06:51.223Z,9.08
2019-03-02T00:07:52.446Z,9.08
2019-03-02T00:08:51.200Z,9.1
2019-03-02T00:09:51.385Z,9.08
2019-03-02T00:10:51.170Z,9.08
2019-03-02T00:11:52.818Z,9.03
2019-03-02T00:12:50.921Z,9.1
2019-03-02T00:13:50.915Z,9
2019-03-02T00:14:54.021Z,9.06
2019-03-02T00:15:51.137Z,9.03
2019-03-02T00:16:50.649Z,9.03
2019-03-02T00:17:54.071Z,9.02
2019-03-02T00:18:51.113Z,9.03
2019-03-02T00:19:51.125Z,9
2019-03-02T00:20:57.960Z,8.97
2019-03-02T00:21:50.870Z,9.02
2019-03-02T00:22:50.615Z,9.1
2019-03-02T00:23:54.226Z,9.02
2019-03-02T00:24:53.875Z,9.08
2019-03-02T00:25:51.076Z,8.99
2019-03-02T00:26:51.490Z,8.99
2019-03-02T00:27:54.036Z,9
2019-03-02T00:28:51.048Z,9.02
2019-03-02T00:29:51.369Z,8.92
2019-03-02T00:30:50.553Z,8.92
2019-03-02T00:31:51.069Z,8.95
2019-03-02T00:32:50.778Z,9
2019-03-02T00:33:53.662Z,8.89
2019-03-02T00:34:50.525Z,8.89
2019-03-02T00:35:50.526Z,8.89
2019-03-02T00:36:54.852Z,8.85
2019-03-02T00:37:50.768Z,8.91
2019-03-02T00:38:51.000Z,8.91
2019-03-02T00:39:56.576Z,8.89
2019-03-02T00:40:50.747Z,8.87
2019-03-02T00:41:50.725Z,8.85
2019-03-02T00:42:55.092Z,8.76
2019-03-02T00:43:50.735Z,8.82
2019-03-02T00:44:50.710Z,8.82
2019-03-02T00:45:53.521Z,8.84
2019-03-02T00:46:50.706Z,8.85
2019-03-02T00:47:50.691Z,8.87
2019-03-02T00:48:51.544Z,8.85
2019-03-02T00:49:50.680Z,8.88
2019-03-02T00:50:50.920Z,8.94
2019-03-02T00:51:52.158Z,8.81
2019-03-02T00:52:51.242Z,8.87
2019-03-02T00:53:50.917Z,8.84
2019-03-02T00:55:02.517Z,8.87
2019-03-02T00:55:50.697Z,8.79
2019-03-02T00:56:50.888Z,8.82
2019-03-02T00:57:55.776Z,8.87
2019-03-02T00:58:50.885Z,8.82
2019-03-02T00:59:50.867Z,8.84
2019-03-02T01:00:53.577Z,8.76
2019-03-02T01:01:50.360Z,8.88
2019-03-02T01:02:50.603Z,8.71
2019-03-02T01:03:53.544Z,8.79
2019-03-02T01:04:50.588Z,8.74
2019-03-02T01:05:50.845Z,8.71
2019-03-02T01:06:53.783Z,8.74
2019-03-02T01:07:50.560Z,8.76
2019-03-02T01:08:50.810Z,8.74
2019-03-02T01:09:51.116Z,8.84
2019-03-02T01:10:50.557Z,8.71
2019-03-02T01:11:50.542Z,8.82
2019-03-02T01:12:50.530Z,8.79
2019-03-02T01:13:50.296Z,8.82
2019-03-02T01:14:50.538Z,8.82
2019-03-02T01:15:50.774Z,8.91
2019-03-02T01:16:55.100Z,8.74
2019-03-02T01:17:50.249Z,8.82
2019-03-02T01:18:50.742Z,8.74
2019-03-02T01:19:56.546Z,8.81
2019-03-02T01:20:50.490Z,8.71
2019-03-02T01:21:50.730Z,8.69
2019-03-02T01:22:54.409Z,8.84
2019-03-02T01:23:50.739Z,8.84
2019-03-02T01:24:50.710Z,8.78
2019-03-02T01:25:53.459Z,8.92
2019-03-02T01:26:50.702Z,8.88
2019-03-02T01:27:50.708Z,8.87
2019-03-02T01:28:50.193Z,8.82
2019-03-02T01:29:54.615Z,8.82
2019-03-02T01:30:51.823Z,8.82
2019-03-02T01:31:50.411Z,8.81
2019-03-02T01:32:56.991Z,8.82
2019-03-02T01:33:50.657Z,8.81
2019-03-02T01:34:50.649Z,8.73
2019-03-02T01:35:50.389Z,8.76
2019-03-02T01:36:50.437Z,8.74
2019-03-02T01:37:50.153Z,8.79
2019-03-02T01:38:53.922Z,8.78
2019-03-02T01:39:50.386Z,8.73
2019-03-02T01:40:50.622Z,8.81
2019-03-02T01:41:55.798Z,8.73
2019-03-02T01:42:50.359Z,8.81
2019-03-02T01:43:50.340Z,8.79
2019-03-02T01:44:54.147Z,8.71
2019-03-02T01:45:50.609Z,8.69
2019-03-02T01:46:50.351Z,8.7
2019-03-02T01:47:55.381Z,8.67
2019-03-02T01:48:50.105Z,8.74
2019-03-02T01:49:50.322Z,8.71
2019-03-02T01:50:52.245Z,8.7
2019-03-02T01:51:50.301Z,8.7
2019-03-02T01:52:50.305Z,8.7
2019-03-02T01:53:51.667Z,8.74
2019-03-02T01:54:52.439Z,8.74
2019-03-02T01:55:50.518Z,8.74
2019-03-02T01:56:50.285Z,8.71
2019-03-02T01:57:54.596Z,8.7
2019-03-02T01:58:50.249Z,8.71
2019-03-02T01:59:50.260Z,8.81
2019-03-02T02:00:53.754Z,8.74
2019-03-02T02:01:50.006Z,8.74
2019-03-02T02:02:50.462Z,8.71
2019-03-02T02:03:52.044Z,8.7
2019-03-02T02:04:50.463Z,8.74
2019-03-02T02:05:50.460Z,8.79
2019-03-02T02:06:50.462Z,8.69
2019-03-02T02:07:55.997Z,8.81
2019-03-02T02:08:50.186Z,8.7
2019-03-02T02:09:50.460Z,8.73
2019-03-02T02:10:50.420Z,8.7
2019-03-02T02:11:55.066Z,8.71
2019-03-02T02:12:50.196Z,8.69
2019-03-02T02:13:50.172Z,8.64
2019-03-02T02:14:54.400Z,8.63
2019-03-02T02:15:50.144Z,8.55
2019-03-02T02:16:50.149Z,8.6
2019-03-02T02:17:52.914Z,8.55
2019-03-02T02:18:49.880Z,8.64
2019-03-02T02:19:49.891Z,8.7
2019-03-02T02:20:52.901Z,8.55
2019-03-02T02:21:50.120Z,8.61
2019-03-02T02:22:50.145Z,8.61
2019-03-02T02:23:54.413Z,8.55
2019-03-02T02:24:50.088Z,8.6
2019-03-02T02:25:49.834Z,8.55
2019-03-02T02:26:51.748Z,8.64
2019-03-02T02:27:49.832Z,8.6
2019-03-02T02:28:50.332Z,8.58
2019-03-02T02:29:49.824Z,8.55
2019-03-02T02:30:50.324Z,8.58
2019-03-02T02:31:51.079Z,8.55
2019-03-02T02:32:50.309Z,8.61
2019-03-02T02:33:50.292Z,8.6
2019-03-02T02:34:50.301Z,8.56
2019-03-02T02:35:50.290Z,8.49
2019-03-02T02:36:52.943Z,8.56
2019-03-02T02:37:50.275Z,8.6
2019-03-02T02:38:58.969Z,8.58
2019-03-02T02:39:50.250Z,8.52
2019-03-02T02:40:50.286Z,8.58
2019-03-02T02:41:49.998Z,8.52
2019-03-02T02:42:50.256Z,8.6
2019-03-02T02:43:54.117Z,8.58
2019-03-02T02:44:50.230Z,8.58
2019-03-02T02:45:57.928Z,8.64
2019-03-02T02:46:50.220Z,8.53
2019-03-02T02:47:56.916Z,8.66
2019-03-02T02:48:50.192Z,8.56
2019-03-02T02:49:54.190Z,8.6
2019-03-02T02:50:50.208Z,8.55
2019-03-02T02:51:54.274Z,8.51
2019-03-02T02:52:50.161Z,8.51
2019-03-02T02:53:51.601Z,8.52
2019-03-02T02:54:50.160Z,8.58
2019-03-02T02:55:50.149Z,8.51
2019-03-02T02:56:54.050Z,8.56
2019-03-02T02:57:50.138Z,8.56
2019-03-02T02:59:01.582Z,8.64
2019-03-02T02:59:49.961Z,8.56
2019-03-02T03:00:59.337Z,8.53
2019-03-02T03:01:50.108Z,8.6
2019-03-02T03:02:49.857Z,8.58
2019-03-02T03:03:50.105Z,8.61
2019-03-02T03:04:49.886Z,8.6
2019-03-02T03:05:57.912Z,8.6
2019-03-02T03:06:50.081Z,8.56
2019-03-02T03:07:58.431Z,8.53
2019-03-02T03:08:49.852Z,8.53
2019-03-02T03:09:54.312Z,8.55
2019-03-02T03:10:50.072Z,8.6
2019-03-02T03:11:50.121Z,8.56
2019-03-02T03:12:50.042Z,8.6
2019-03-02T03:13:49.787Z,8.61
2019-03-02T03:14:54.061Z,8.58
2019-03-02T03:15:49.776Z,8.53
2019-03-02T03:16:53.999Z,8.58
2019-03-02T03:17:49.767Z,8.58
2019-03-02T03:18:54.541Z,8.64
2019-03-02T03:19:49.762Z,8.56
2019-03-02T03:20:54.512Z,8.51
2019-03-02T03:21:49.979Z,8.48
2019-03-02T03:22:51.162Z,8.56
2019-03-02T03:23:49.724Z,8.53
2019-03-02T03:24:49.967Z,8.51
2019-03-02T03:25:58.910Z,8.53
2019-03-02T03:26:49.964Z,8.53
2019-03-02T03:27:54.528Z,8.6
2019-03-02T03:28:49.751Z,8.53
2019-03-02T03:29:54.429Z,8.6
2019-03-02T03:30:49.975Z,8.53
2019-03-02T03:31:49.968Z,8.58
2019-03-02T03:33:02.263Z,8.6
2019-03-02T03:33:52.221Z,8.58
2019-03-02T03:34:49.943Z,8.58
2019-03-02T03:35:56.056Z,8.6
2019-03-02T03:36:49.911Z,8.61
2019-03-02T03:37:55.610Z,8.6
2019-03-02T03:38:49.878Z,8.55
2019-03-02T03:39:51.097Z,8.58
2019-03-02T03:40:49.614Z,8.56
2019-03-02T03:41:49.655Z,8.6
2019-03-02T03:42:49.864Z,8.58
2019-03-02T03:43:49.868Z,8.61
2019-03-02T03:44:49.834Z,8.6
2019-03-02T03:45:49.952Z,8.6
2019-03-02T03:46:49.867Z,8.55
2019-03-02T03:47:49.849Z,8.55
2019-03-02T03:48:58.155Z,8.61
2019-03-02T03:49:49.334Z,8.58
2019-03-02T03:50:55.075Z,8.6
2019-03-02T03:51:49.800Z,8.58
2019-03-02T03:52:53.951Z,8.58
2019-03-02T03:53:49.828Z,8.55
2019-03-02T03:54:50.923Z,8.58
2019-03-02T03:55:49.780Z,8.51
2019-03-02T03:56:49.529Z,8.44
2019-03-02T03:57:49.770Z,8.52
2019-03-02T03:58:49.791Z,8.49
2019-03-02T03:59:53.341Z,8.52
2019-03-02T04:00:49.487Z,8.53
2019-03-02T04:01:56.709Z,8.55
2019-03-02T04:02:49.798Z,8.6
2019-03-02T04:03:55.847Z,8.52
2019-03-02T04:04:49.473Z,8.45
2019-03-02T04:05:51.770Z,8.46
2019-03-02T04:06:49.705Z,8.52
2019-03-02T04:07:54.662Z,8.49
2019-03-02T04:08:49.710Z,8.49
2019-03-02T04:09:51.738Z,8.55
2019-03-02T04:10:49.690Z,8.55
2019-03-02T04:11:49.672Z,8.52
2019-03-02T04:12:49.710Z,8.55
2019-03-02T04:13:51.441Z,8.49
2019-03-02T04:14:49.669Z,8.56
2019-03-02T04:15:49.638Z,8.53
2019-03-02T04:16:49.651Z,8.58
2019-03-02T04:17:49.636Z,8.58
2019-03-02T04:18:57.869Z,8.58
2019-03-02T04:19:49.627Z,8.58
2019-03-02T04:20:53.860Z,8.55
2019-03-02T04:21:49.609Z,8.55
2019-03-02T04:22:50.570Z,8.63
2019-03-02T04:23:49.374Z,8.63
2019-03-02T04:24:49.638Z,8.6
2019-03-02T04:25:52.007Z,8.56
2019-03-02T04:26:49.572Z,8.56
2019-03-02T04:27:58.721Z,8.6
2019-03-02T04:28:49.564Z,8.58
2019-03-02T04:29:57.796Z,8.52
2019-03-02T04:30:49.570Z,8.55
2019-03-02T04:31:54.760Z,8.56
2019-03-02T04:32:49.292Z,8.55
2019-03-02T04:33:49.542Z,8.56
2019-03-02T04:34:49.537Z,8.48
2019-03-02T04:35:49.285Z,8.51
2019-03-02T04:36:52.380Z,8.53
2019-03-02T04:37:49.521Z,8.52
2019-03-02T04:38:49.294Z,8.53
2019-03-02T04:39:52.550Z,8.58
2019-03-02T04:40:49.254Z,8.56
2019-03-02T04:41:49.243Z,8.51
2019-03-02T04:42:52.842Z,8.53
2019-03-02T04:43:50.606Z,8.61
2019-03-02T04:44:48.979Z,8.51
2019-03-02T04:45:49.450Z,8.52
2019-03-02T04:46:54.385Z,8.52
2019-03-02T04:47:49.193Z,8.61
2019-03-02T04:48:49.188Z,8.55
2019-03-02T04:49:53.669Z,8.48
2019-03-02T04:50:49.424Z,8.53
2019-03-02T04:51:49.163Z,8.49
2019-03-02T04:52:52.286Z,8.51
2019-03-02T04:53:49.398Z,8.53
2019-03-02T04:54:49.176Z,8.49
2019-03-02T04:55:51.169Z,8.53
2019-03-02T04:56:49.392Z,8.6
2019-03-02T04:57:49.390Z,8.61
2019-03-02T04:58:51.819Z,8.55
2019-03-02T04:59:49.120Z,8.46
2019-03-02T05:00:49.125Z,8.6
2019-03-02T05:01:51.042Z,8.6
2019-03-02T05:02:51.557Z,8.6
2019-03-02T05:03:49.359Z,8.56
2019-03-02T05:04:49.367Z,8.6
2019-03-02T05:05:49.369Z,8.6
2019-03-02T05:06:50.519Z,8.58
2019-03-02T05:07:49.088Z,8.6
2019-03-02T05:08:49.312Z,8.55
2019-03-02T05:09:51.982Z,8.61
2019-03-02T05:10:49.064Z,8.55
2019-03-02T05:11:49.302Z,8.61
2019-03-02T05:12:52.981Z,8.58
2019-03-02T05:13:48.788Z,8.55
2019-03-02T05:14:49.026Z,8.61
2019-03-02T05:15:52.279Z,8.58
2019-03-02T05:16:49.259Z,8.61
2019-03-02T05:17:49.251Z,8.55
2019-03-02T05:18:53.391Z,8.58
2019-03-02T05:19:48.999Z,8.63
2019-03-02T05:20:49.001Z,8.6
2019-03-02T05:21:49.015Z,8.6
2019-03-02T05:22:50.661Z,8.6
2019-03-02T05:23:49.222Z,8.52
2019-03-02T05:24:49.231Z,8.56
2019-03-02T05:25:51.551Z,8.58
2019-03-02T05:26:48.950Z,8.58
2019-03-02T05:27:48.950Z,8.55
2019-03-02T05:28:48.947Z,8.67
2019-03-02T05:29:50.666Z,8.64
2019-03-02T05:30:48.951Z,8.7
2019-03-02T05:31:49.172Z,8.63
2019-03-02T05:32:53.814Z,8.55
2019-03-02T05:33:49.171Z,8.58
2019-03-02T05:34:49.167Z,8.58
2019-03-02T05:35:54.072Z,8.6
2019-03-02T05:36:48.933Z,8.51
2019-03-02T05:37:48.916Z,8.63
2019-03-02T05:38:49.307Z,8.52
2019-03-02T05:39:52.820Z,8.51
2019-03-02T05:40:48.613Z,8.58
2019-03-02T05:41:49.107Z,8.46
2019-03-02T05:42:55.000Z,8.55
2019-03-02T05:43:48.884Z,8.46
2019-03-02T05:44:48.840Z,8.46
2019-03-02T05:45:48.847Z,8.36
2019-03-02T05:46:48.861Z,8.49
2019-03-02T05:47:49.094Z,8.37
2019-03-02T05:48:49.179Z,8.52
2019-03-02T05:49:50.689Z,8.49
2019-03-02T05:50:49.062Z,8.46
2019-03-02T05:51:48.813Z,8.52
2019-03-02T05:52:50.691Z,8.49
2019-03-02T05:53:49.039Z,8.48
2019-03-02T05:54:49.035Z,8.48
2019-03-02T05:55:49.805Z,8.52
2019-03-02T05:56:49.561Z,8.55
2019-03-02T05:57:49.006Z,8.49
2019-03-02T05:58:51.084Z,8.48
2019-03-02T05:59:49.005Z,8.48
2019-03-02T06:00:48.740Z,8.51
2019-03-02T06:01:48.745Z,8.53
2019-03-02T06:02:49.080Z,8.52
2019-03-02T06:03:50.955Z,8.55
2019-03-02T06:04:53.539Z,8.58
2019-03-02T06:05:48.729Z,8.55
2019-03-02T06:06:50.605Z,8.52
2019-03-02T06:07:48.946Z,8.53
2019-03-02T06:08:48.688Z,8.58
2019-03-02T06:09:52.624Z,8.56
2019-03-02T06:10:48.683Z,8.52
2019-03-02T06:11:48.944Z,8.55
2019-03-02T06:12:51.449Z,8.55
2019-03-02T06:13:48.920Z,8.55
2019-03-02T06:14:48.402Z,8.55
2019-03-02T06:15:51.293Z,8.53
2019-03-02T06:16:48.650Z,8.55
2019-03-02T06:17:48.913Z,8.51
2019-03-02T06:18:49.995Z,8.58
2019-03-02T06:19:48.368Z,8.55
2019-03-02T06:20:49.502Z,8.55
2019-03-02T06:21:50.928Z,8.52
2019-03-02T06:22:48.364Z,8.56
2019-03-02T06:23:48.592Z,8.53
2019-03-02T06:24:48.580Z,8.58
2019-03-02T06:25:48.831Z,8.55
2019-03-02T06:26:48.585Z,8.53
2019-03-02T06:27:51.864Z,8.46
2019-03-02T06:28:48.849Z,8.51
2019-03-02T06:29:48.801Z,8.55
2019-03-02T06:30:49.507Z,8.53
2019-03-02T06:31:50.570Z,8.38
2019-03-02T06:32:48.784Z,8.49
2019-03-02T06:33:50.039Z,8.38
2019-03-02T06:34:51.811Z,8.46
2019-03-02T06:35:48.773Z,8.41
2019-03-02T06:36:49.294Z,8.42
2019-03-02T06:37:48.530Z,8.36
2019-03-02T06:38:48.767Z,8.46
2019-03-02T06:39:49.087Z,8.49
2019-03-02T06:40:48.729Z,8.46
2019-03-02T06:41:48.723Z,8.49
2019-03-02T06:42:50.466Z,8.49
2019-03-02T06:43:48.720Z,8.49
2019-03-02T06:44:48.704Z,8.49
2019-03-02T06:45:49.177Z,8.49
2019-03-02T06:46:48.453Z,8.52
2019-03-02T06:47:48.452Z,8.52
2019-03-02T06:48:49.505Z,8.52
2019-03-02T06:49:48.431Z,8.53
2019-03-02T06:50:48.170Z,8.52
2019-03-02T06:51:51.997Z,8.55
2019-03-02T06:52:48.690Z,8.48
2019-03-02T06:53:48.174Z,8.45
2019-03-02T06:54:51.263Z,8.38
2019-03-02T06:55:48.653Z,8.44
2019-03-02T06:56:55.002Z,8.37
2019-03-02T06:57:54.068Z,8.36
2019-03-02T06:58:48.624Z,8.44
2019-03-02T06:59:48.615Z,8.46
2019-03-02T07:00:51.072Z,8.42
2019-03-02T07:01:49.316Z,8.52
2019-03-02T07:02:48.609Z,8.42
2019-03-02T07:03:51.529Z,8.36
2019-03-02T07:04:48.099Z,8.42
2019-03-02T07:05:48.585Z,8.38
2019-03-02T07:06:51.743Z,8.44
2019-03-02T07:07:48.594Z,8.38
2019-03-02T07:08:48.308Z,8.41
2019-03-02T07:09:49.636Z,8.42
2019-03-02T07:10:48.611Z,8.52
2019-03-02T07:11:48.571Z,8.52
2019-03-02T07:12:50.691Z,8.51
2019-03-02T07:13:48.527Z,8.46
2019-03-02T07:14:48.532Z,8.45
2019-03-02T07:15:49.773Z,8.46
2019-03-02T07:16:51.964Z,8.52
2019-03-02T07:17:48.515Z,8.53
2019-03-02T07:18:48.016Z,8.49
2019-03-02T07:19:51.811Z,8.49
2019-03-02T07:20:48.512Z,8.53
2019-03-02T07:21:48.470Z,8.56
2019-03-02T07:22:52.384Z,8.53
2019-03-02T07:23:48.476Z,8.56
2019-03-02T07:24:47.989Z,8.48
2019-03-02T07:25:49.117Z,8.52
2019-03-02T07:26:51.519Z,8.52
2019-03-02T07:27:48.194Z,8.55
2019-03-02T07:28:47.952Z,8.66
2019-03-02T07:29:49.708Z,8.6
2019-03-02T07:30:48.435Z,8.58
2019-03-02T07:31:48.428Z,8.56
2019-03-02T07:32:48.187Z,8.63
2019-03-02T07:33:48.398Z,8.63
2019-03-02T07:34:49.097Z,8.69
2019-03-02T07:35:49.469Z,8.7
2019-03-02T07:36:47.912Z,8.76
2019-03-02T07:37:49.768Z,8.73
2019-03-02T07:38:48.122Z,8.7
2019-03-02T07:39:48.190Z,8.7
2019-03-02T07:40:50.415Z,8.73
2019-03-02T07:41:48.354Z,8.74
2019-03-02T07:42:48.120Z,8.76
2019-03-02T07:43:51.131Z,8.71
2019-03-02T07:44:48.093Z,8.7
2019-03-02T07:45:48.323Z,8.64
2019-03-02T07:46:50.498Z,8.7
2019-03-02T07:47:48.338Z,8.74
2019-03-02T07:48:48.313Z,8.78
2019-03-02T07:49:52.335Z,8.76
2019-03-02T07:50:48.301Z,8.71
2019-03-02T07:51:48.285Z,8.69
2019-03-02T07:52:49.649Z,8.85
2019-03-02T07:53:48.036Z,8.88
2019-03-02T07:54:59.266Z,8.94
2019-03-02T07:55:47.769Z,8.87
2019-03-02T07:56:48.255Z,8.88
2019-03-02T07:57:48.684Z,8.91
2019-03-02T07:58:47.768Z,8.88
2019-03-02T07:59:48.249Z,8.89
2019-03-02T08:00:48.247Z,8.88
2019-03-02T08:01:52.616Z,8.89
2019-03-02T08:02:47.994Z,8.87
2019-03-02T08:03:47.969Z,8.87
2019-03-02T08:04:47.978Z,8.88
2019-03-02T08:05:53.248Z,8.91
2019-03-02T08:06:47.968Z,8.88
2019-03-02T08:07:48.215Z,9.03
2019-03-02T08:08:51.812Z,8.97
2019-03-02T08:09:48.197Z,9
2019-03-02T08:10:47.691Z,9.02
2019-03-02T08:11:51.508Z,8.92
2019-03-02T08:12:48.171Z,8.88
2019-03-02T08:13:47.672Z,8.84
2019-03-02T08:14:50.339Z,8.87
2019-03-02T08:15:48.733Z,8.87
2019-03-02T08:16:47.912Z,8.88
2019-03-02T08:17:51.600Z,8.85
2019-03-02T08:18:47.886Z,8.81
2019-03-02T08:19:51.018Z,8.95
2019-03-02T08:20:48.119Z,8.85
2019-03-02T08:21:47.862Z,8.97
2019-03-02T08:22:51.138Z,8.94
2019-03-02T08:23:47.868Z,8.89
2019-03-02T08:24:48.443Z,8.84
2019-03-02T08:25:47.587Z,8.87
2019-03-02T08:26:47.600Z,8.87
2019-03-02T08:27:47.833Z,8.85
2019-03-02T08:28:50.974Z,8.89
2019-03-02T08:29:48.110Z,8.81
2019-03-02T08:30:48.058Z,8.71
2019-03-02T08:31:50.533Z,8.89
2019-03-02T08:32:47.800Z,8.87
2019-03-02T08:33:50.920Z,8.91
2019-03-02T08:34:51.181Z,8.87
2019-03-02T08:35:48.276Z,8.99
2019-03-02T08:36:50.229Z,9.03
2019-03-02T08:37:48.019Z,8.94
2019-03-02T08:38:47.755Z,8.99
2019-03-02T08:39:51.297Z,9.06
2019-03-02T08:40:48.685Z,9.06
2019-03-02T08:41:48.014Z,9.19
2019-03-02T08:42:47.992Z,9.19
2019-03-02T08:43:48.025Z,9.21
2019-03-02T08:44:50.690Z,9.28
2019-03-02T08:45:47.966Z,9.36
2019-03-02T08:46:47.716Z,9.43
2019-03-02T08:47:47.481Z,9.44
2019-03-02T08:48:47.695Z,9.41
2019-03-02T08:49:47.711Z,9.44
2019-03-02T08:50:49.699Z,9.43
2019-03-02T08:51:47.966Z,9.48
2019-03-02T08:52:47.671Z,9.46
2019-03-02T08:53:47.669Z,9.51
2019-03-02T08:54:47.681Z,9.56
2019-03-02T08:55:47.909Z,9.55
2019-03-02T08:56:50.161Z,9.58
2019-03-02T08:57:47.894Z,9.61
2019-03-02T08:58:47.647Z,9.61
2019-03-02T08:59:47.888Z,9.65
2019-03-02T09:00:47.808Z,9.69
2019-03-02T09:01:51.201Z,9.58
2019-03-02T09:02:47.640Z,9.65
2019-03-02T09:03:47.874Z,9.64
2019-03-02T09:04:50.733Z,9.62
2019-03-02T09:05:57.678Z,9.68
2019-03-02T09:06:47.594Z,9.74
2019-03-02T09:07:48.146Z,9.84
2019-03-02T09:08:47.844Z,9.94
2019-03-02T09:09:47.839Z,10.01
2019-03-02T09:10:51.826Z,9.92
2019-03-02T09:11:50.078Z,10.01
2019-03-02T09:12:47.815Z,9.99
2019-03-02T09:13:47.851Z,10.04
2019-03-02T09:14:51.499Z,10.13
2019-03-02T09:15:48.043Z,10.05
2019-03-02T09:16:47.542Z,10.09
2019-03-02T09:17:50.051Z,10.16
2019-03-02T09:18:50.371Z,10.23
2019-03-02T09:19:47.790Z,10.22
2019-03-02T09:20:47.525Z,10.34
2019-03-02T09:21:50.221Z,10.26
2019-03-02T09:22:47.763Z,10.26
2019-03-02T09:23:47.268Z,10.28
2019-03-02T09:24:53.363Z,10.37
2019-03-02T09:25:47.271Z,10.33
2019-03-02T09:26:47.748Z,10.33
2019-03-02T09:27:47.489Z,10.31
2019-03-02T09:28:47.484Z,10.37
2019-03-02T09:29:47.241Z,10.33
2019-03-02T09:30:47.485Z,10.34
2019-03-02T09:31:49.050Z,10.37
2019-03-02T09:32:50.835Z,10.38
2019-03-02T09:33:47.718Z,10.42
2019-03-02T09:34:49.472Z,10.54
2019-03-02T09:35:48.596Z,10.59
2019-03-02T09:36:48.149Z,10.51
2019-03-02T09:37:48.487Z,10.53
2019-03-02T09:38:47.187Z,10.68
2019-03-02T09:39:47.684Z,10.61
2019-03-02T09:40:51.675Z,10.76
2019-03-02T09:41:49.855Z,10.75
2019-03-02T09:42:47.430Z,10.78
2019-03-02T09:43:47.423Z,10.76
2019-03-02T09:44:47.427Z,10.82
2019-03-02T09:45:50.682Z,10.82
2019-03-02T09:46:47.426Z,10.84
2019-03-02T09:47:51.968Z,10.86
2019-03-02T09:48:47.663Z,10.75
2019-03-02T09:49:47.656Z,10.78
2019-03-02T09:50:47.390Z,10.72
2019-03-02T09:51:50.758Z,10.78
2019-03-02T09:52:48.175Z,10.82
2019-03-02T09:53:48.271Z,10.87
2019-03-02T09:54:47.385Z,11.1
2019-03-02T09:55:47.368Z,11.12
2019-03-02T09:56:47.618Z,11.14
2019-03-02T09:57:52.197Z,11.32
2019-03-02T09:58:47.620Z,11.29
2019-03-02T09:59:50.787Z,11.33
2019-03-02T10:00:47.357Z,11.37
2019-03-02T10:01:48.107Z,11.27
2019-03-02T10:02:51.844Z,11.3
2019-03-02T10:03:47.352Z,11.33
2019-03-02T10:04:47.579Z,11.4
2019-03-02T10:05:51.699Z,11.41
2019-03-02T10:06:47.850Z,11.3
2019-03-02T10:07:47.323Z,11.4
2019-03-02T10:08:51.419Z,11.36
2019-03-02T10:09:47.095Z,11.27
2019-03-02T10:10:47.058Z,11.33
2019-03-02T10:11:47.324Z,11.36
2019-03-02T10:12:51.368Z,11.37
2019-03-02T10:13:47.546Z,11.35
2019-03-02T10:14:47.546Z,11.48
2019-03-02T10:15:47.305Z,11.37
2019-03-02T10:16:47.294Z,11.4
2019-03-02T10:17:47.299Z,11.4
2019-03-02T10:18:52.348Z,11.44
2019-03-02T10:19:47.281Z,11.29
2019-03-02T10:20:48.204Z,11.32
2019-03-02T10:21:51.585Z,11.26
2019-03-02T10:22:47.284Z,11.3
2019-03-02T10:23:47.724Z,11.37
2019-03-02T10:24:49.735Z,11.35
2019-03-02T10:25:47.500Z,11.32
2019-03-02T10:26:48.527Z,11.15
2019-03-02T10:27:49.376Z,11.18
2019-03-02T10:28:47.236Z,11.25
2019-03-02T10:29:50.687Z,11.17
2019-03-02T10:30:47.475Z,11.11
2019-03-02T10:31:49.511Z,11.25
2019-03-02T10:32:47.510Z,11.26
2019-03-02T10:33:47.475Z,11.44
2019-03-02T10:34:47.767Z,11.36
2019-03-02T10:35:49.558Z,11.37
2019-03-02T10:36:47.211Z,11.3
2019-03-02T10:37:47.970Z,11.27
2019-03-02T10:38:47.241Z,11.17
2019-03-02T10:39:47.206Z,11.19
2019-03-02T10:40:49.372Z,11.15
2019-03-02T10:41:47.440Z,11.27
2019-03-02T10:42:47.199Z,11.4
2019-03-02T10:43:49.637Z,11.41
2019-03-02T10:44:47.433Z,11.37
2019-03-02T10:45:47.244Z,11.29
2019-03-02T10:46:47.433Z,11.3
2019-03-02T10:47:47.178Z,11.26
2019-03-02T10:48:47.420Z,11.37
2019-03-02T10:49:52.528Z,11.35
2019-03-02T10:50:49.314Z,11.41
2019-03-02T10:51:47.229Z,11.48
2019-03-02T10:52:51.429Z,11.5
2019-03-02T10:53:47.416Z,11.5
2019-03-02T10:54:47.161Z,11.4
2019-03-02T10:55:52.261Z,11.33
2019-03-02T10:56:47.385Z,11.36
2019-03-02T10:57:47.140Z,11.26
2019-03-02T10:58:48.194Z,11.44
2019-03-02T10:59:51.676Z,11.32
2019-03-02T11:00:47.133Z,11.25
2019-03-02T11:01:48.581Z,11.15
2019-03-02T11:02:47.130Z,11.26
2019-03-02T11:03:47.376Z,11.33
2019-03-02T11:04:49.516Z,11.27
2019-03-02T11:05:47.115Z,11.29
2019-03-02T11:06:47.092Z,11.29
2019-03-02T11:07:52.645Z,11.26
2019-03-02T11:08:47.358Z,11.22
2019-03-02T11:09:47.333Z,11.25
2019-03-02T11:10:48.642Z,11.17
2019-03-02T11:11:47.334Z,11.23
2019-03-02T11:12:48.429Z,11.23
2019-03-02T11:13:47.992Z,11.36
2019-03-02T11:14:47.319Z,11.35
2019-03-02T11:15:47.912Z,11.41
2019-03-02T11:16:51.258Z,11.4
2019-03-02T11:17:47.065Z,11.37
2019-03-02T11:18:46.821Z,11.43
2019-03-02T11:19:49.936Z,11.47
2019-03-02T11:20:47.296Z,11.55
2019-03-02T11:21:47.071Z,11.44
2019-03-02T11:22:47.293Z,11.57
2019-03-02T11:23:47.049Z,11.47
2019-03-02T11:24:47.287Z,11.4
2019-03-02T11:25:47.031Z,11.52
2019-03-02T11:26:47.031Z,11.43
2019-03-02T11:27:52.302Z,11.48
2019-03-02T11:28:47.678Z,11.47
2019-03-02T11:29:55.792Z,11.37
2019-03-02T11:30:47.272Z,11.36
2019-03-02T11:31:49.974Z,11.44
2019-03-02T11:32:47.035Z,11.44
2019-03-02T11:33:49.090Z,11.51
2019-03-02T11:34:47.266Z,11.57
2019-03-02T11:35:47.267Z,11.6
2019-03-02T11:36:51.887Z,11.66
2019-03-02T11:37:49.327Z,11.8
2019-03-02T11:38:47.234Z,11.8
2019-03-02T11:39:49.955Z,11.9
2019-03-02T11:40:47.043Z,12.06
2019-03-02T11:41:46.977Z,12.09
2019-03-02T11:42:47.589Z,12.21
2019-03-02T11:43:48.491Z,12.25
2019-03-02T11:44:47.577Z,12.28
2019-03-02T11:45:46.969Z,12.31
2019-03-02T11:46:46.994Z,12.45
2019-03-02T11:47:49.592Z,12.35
2019-03-02T11:48:57.896Z,12.55
2019-03-02T11:49:47.210Z,12.47
2019-03-02T11:50:50.821Z,12.67
2019-03-02T11:51:46.951Z,12.68
2019-03-02T11:52:47.260Z,12.72
2019-03-02T11:53:48.644Z,12.75
2019-03-02T11:54:46.938Z,12.87
2019-03-02T11:55:46.959Z,12.86
2019-03-02T11:56:50.127Z,12.83
2019-03-02T11:57:46.935Z,12.76
2019-03-02T11:58:47.174Z,12.9
2019-03-02T11:59:50.243Z,12.87
2019-03-02T12:00:46.929Z,12.79
2019-03-02T12:01:46.925Z,12.94
2019-03-02T12:02:46.915Z,13
2019-03-02T12:03:46.931Z,13.25
2019-03-02T12:04:48.948Z,13.28
2019-03-02T12:05:46.921Z,13.22
2019-03-02T12:06:46.675Z,13.25
2019-03-02T12:07:50.328Z,13.35
2019-03-02T12:08:47.154Z,13.37
2019-03-02T12:09:46.912Z,13.46
2019-03-02T12:10:47.158Z,13.37
2019-03-02T12:11:51.150Z,13.44
2019-03-02T12:12:46.897Z,13.41
2019-03-02T12:13:47.136Z,13.37
2019-03-02T12:14:48.785Z,13.46
2019-03-02T12:15:49.277Z,13.52
2019-03-02T12:16:46.903Z,13.54
2019-03-02T12:17:46.894Z,13.5
2019-03-02T12:18:46.633Z,13.49
2019-03-02T12:19:47.131Z,13.41
2019-03-02T12:20:50.031Z,13.47
2019-03-02T12:21:47.134Z,13.47
2019-03-02T12:22:46.630Z,13.46
2019-03-02T12:23:46.875Z,13.47
2019-03-02T12:24:46.882Z,13.54
2019-03-02T12:25:46.627Z,13.57
2019-03-02T12:26:48.865Z,13.59
2019-03-02T12:27:46.872Z,13.59
2019-03-02T12:28:47.130Z,13.53
2019-03-02T12:29:51.932Z,13.52
2019-03-02T12:30:47.123Z,13.5
2019-03-02T12:31:46.917Z,13.46
2019-03-02T12:32:49.045Z,13.44
2019-03-02T12:33:47.091Z,13.53
2019-03-02T12:34:47.181Z,13.46
2019-03-02T12:35:47.103Z,13.54
2019-03-02T12:36:49.053Z,13.54
2019-03-02T12:37:46.855Z,13.57
2019-03-02T12:38:50.550Z,13.57
2019-03-02T12:39:47.095Z,13.59
2019-03-02T12:40:46.875Z,13.56
2019-03-02T12:41:48.793Z,13.56
2019-03-02T12:42:47.090Z,13.54
2019-03-02T12:43:48.991Z,13.56
2019-03-02T12:44:47.084Z,13.56
2019-03-02T12:45:47.078Z,13.67
2019-03-02T12:46:51.749Z,13.65
2019-03-02T12:47:46.576Z,13.54
2019-03-02T12:48:46.830Z,13.54
2019-03-02T12:49:49.285Z,13.5
2019-03-02T12:50:47.071Z,13.47
2019-03-02T12:51:49.476Z,13.39
2019-03-02T12:52:51.663Z,13.42
2019-03-02T12:53:46.819Z,13.42
2019-03-02T12:54:48.339Z,13.41
2019-03-02T12:55:46.827Z,13.33
2019-03-02T12:56:46.821Z,13.27
2019-03-02T12:57:50.366Z,13.22
2019-03-02T12:58:47.061Z,13.22
2019-03-02T12:59:47.052Z,13.2
2019-03-02T13:00:48.776Z,13.04
2019-03-02T13:01:47.653Z,13.05
2019-03-02T13:02:51.208Z,12.98
2019-03-02T13:03:46.793Z,12.86
2019-03-02T13:04:51.388Z,12.82
2019-03-02T13:05:46.791Z,12.8
2019-03-02T13:06:48.821Z,12.78
2019-03-02T13:07:50.668Z,12.79
2019-03-02T13:08:48.465Z,12.76
2019-03-02T13:09:46.533Z,12.83
2019-03-02T13:10:49.198Z,12.8
2019-03-02T13:11:46.781Z,12.8
2019-03-02T13:12:50.027Z,12.79
2019-03-02T13:13:46.772Z,12.91